COK2 weather

Calgary\Okotoks (GG Ranch) Heliport
Calgary, Alberta, Canada

Public forecast

Using degrees Celsius for public forecast. Weather courtesy of forecast.io.

METAR (pilot weather report)

Closest report is Calgary International Airport, 22.2 nm (41.1 km) N. Retrieved 2019/06/16 08:00 UTC (25 minutes ago):

CYYC 160800Z 06009KT 10SM VCSH FEW072 BKN170 11/08 A3005 RMK AC2AC5 SH SE SLP185 DENSITY ALT 3900FT

TAF (pilot weather forecast)

Closest forecast is Calgary International Airport, 22.2 nm (41.1 km) N. Retrieved 2019/06/16 09:40 UTC (0 seconds ago):

TAF CYYC 160838Z 1609/1706 28005KT P6SM FEW060 SCT200 FM162000 35008KT P6SM SCT080 RMK NXT FCST BY 161200Z